»·PEaware :: KLM605 EHAM-KSFO

KLM605 :: EHAM-KSFO

FLIGHT INFORMATION

Flight Status: Arrived
Operator:
KLM
More flights by this operator :: More flights under this callsign
Pilot: Jamyson D. (13674)
Aircraft: Unknown
(B77W)
More flights by this aircraft type
Origin: EHAM Schiphol
Netherlands
Destination: KSFO San Francisco Intl
United States
More flights between these airports :: More routes between these airports
Route: +BERG2N BERGI UL602 SUPUR P1 ROLUM P13 ASKAM L7 SUM/M082F300 64N010W 68N020W 71N030W 73N040W 74N060W DAPAK/N0466F300 73N080W 72N090W DERLI DUKPA YZF YXJ J534 YWL J518 YYJ J589 ELMAA RBG MLBEC BDEGA2
File this flight plan on PilotEdge
Remarks: PBN / A1B1C1D1L1O1S2 DOF / 170529 REG / N713SB EET / EGTT0015 EGPX0028 BIRD0120 64N010W0151 68N020W0234 BGGL0246 71N030W0309 73N040W0336 74N060W0420 CZEG0446 73N080W0505 72N090W0531 CZVR0823 KZSE0921 KZOA1019 OPR / KLM RALT / BGSF CYFB RMK / TCAS SIMBRIEF
Altitude:
(Current/Filed)
30,000ft
Speed:
(Current/Filed)
489kts
Departed: 28-May-17 11:44 PM
Arrived: 29-May-17 10:33 AM
Distance/Time
Traveled:
4741nm/10:49
Distance/Time
To Go:
Arrived

Flight Plot

Page will automatically refresh every two minutes.

Flight plan parsing failed; only flown route is shown


Map Options




Map Legend


Flown Route
Filed Route
Departure Airport
Arrival Airport
Navaid (VOR, NDB)
Fix

Horizontal Profiles

Position Reports

Time Latitude Longitude Heading Altitude Ground
Speed
28-May-17 23:29 52.312267 4.772755 183 6ft 0kts
28-May-17 23:30 52.312834 4.772862 224 6ft 2kts
28-May-17 23:31 52.312915 4.773233 273 6ft 0kts
28-May-17 23:32 52.312915 4.773232 273 6ft 0kts
28-May-17 23:33 52.312915 4.773233 273 6ft 0kts
28-May-17 23:34 52.312936 4.772234 271 6ft 0kts
28-May-17 23:35 52.312936 4.772234 271 6ft 0kts
28-May-17 23:36 52.312936 4.772227 271 6ft 0kts
28-May-17 23:37 52.314575 4.771975 2 6ft 9kts
28-May-17 23:38 52.315619 4.768631 267 6ft 11kts
28-May-17 23:39 52.315424 4.764180 265 6ft 12kts
28-May-17 23:40 52.315248 4.758664 267 6ft 12kts
28-May-17 23:41 52.315106 4.753937 267 6ft 12kts
28-May-17 23:42 52.315106 4.753937 267 6ft 12kts
28-May-17 23:43 52.315085 4.753315 266 6ft 12kts
28-May-17 23:44 52.315000 4.750959 266 6ft 12kts
28-May-17 23:45 52.315919 4.746581 7 6ft 10kts
28-May-17 23:46 52.316951 4.755302 86 6ft 87kts
28-May-17 23:47 52.334716 4.830731 21 2310ft 259kts
28-May-17 23:48 52.397375 4.778638 308 7753ft 290kts
28-May-17 23:49 52.452454 4.684066 313 13390ft 302kts
28-May-17 23:50 52.528869 4.620952 336 18347ft 325kts
28-May-17 23:51 52.629551 4.555101 335 21519ft 438kts
28-May-17 23:52 52.722544 4.429008 300 27321ft 462kts
28-May-17 23:53 52.787624 4.245266 296 29929ft 478kts
28-May-17 23:54 52.852105 4.053872 296 29969ft 479kts
28-May-17 23:55 52.917841 3.857719 296 29968ft 498kts
28-May-17 23:56 52.985121 3.659050 302 29948ft 490kts
28-May-17 23:57 53.087326 3.518006 335 30023ft 508kts
28-May-17 23:58 53.222693 3.444452 339 29991ft 514kts
28-May-17 23:59 53.357427 3.367024 339 29992ft 514kts
29-May-17 00:00 53.488069 3.291287 338 30046ft 495kts
29-May-17 00:01 53.622780 3.213396 341 30038ft 510kts
29-May-17 00:02 53.760770 3.207600 3 30057ft 505kts
29-May-17 00:03 53.901571 3.232816 4 30090ft 525kts
29-May-17 00:04 54.045137 3.259536 4 30030ft 519kts
29-May-17 00:05 54.181492 3.285178 4 30028ft 494kts
29-May-17 00:06 54.319822 3.306289 354 30016ft 497kts
29-May-17 00:07 54.457293 3.290766 353 30022ft 497kts
29-May-17 00:08 54.594106 3.274666 353 30049ft 497kts
29-May-17 00:09 54.731557 3.258329 353 30050ft 497kts
29-May-17 00:10 54.869233 3.241846 353 30022ft 497kts
29-May-17 00:11 55.002195 3.193783 330 30031ft 489kts
29-May-17 00:12 55.123000 3.085297 329 30020ft 489kts
29-May-17 00:13 55.242398 2.976170 329 30020ft 489kts
29-May-17 00:14 55.362612 2.865445 329 30020ft 489kts
29-May-17 00:15 55.482716 2.754055 329 30021ft 489kts
29-May-17 00:16 55.601952 2.642699 329 30021ft 489kts
29-May-17 00:17 55.721800 2.529997 329 30238ft 490kts
29-May-17 00:18 55.842020 2.416144 329 30490ft 490kts
29-May-17 00:19 55.964306 2.310619 332 30565ft 492kts
29-May-17 00:20 56.088293 2.209378 332 30566ft 492kts
29-May-17 00:21 56.211890 2.107662 332 30560ft 492kts
29-May-17 00:22 56.335476 2.005220 332 30314ft 492kts
29-May-17 00:23 56.466141 1.896166 331 30288ft 526kts
29-May-17 00:24 56.597957 1.785217 331 30293ft 526kts
29-May-17 00:25 56.730037 1.673142 331 30608ft 545kts
29-May-17 00:26 56.863637 1.559140 331 32305ft 520kts
29-May-17 00:27 56.995576 1.445394 331 32298ft 525kts
29-May-17 00:28 57.124113 1.333838 330 32184ft 524kts
29-May-17 00:29 57.255272 1.219097 330 32048ft 524kts
29-May-17 00:30 57.386540 1.103352 330 32047ft 525kts
29-May-17 00:31 57.517829 0.986663 330 32048ft 525kts
29-May-17 00:32 57.648547 0.869546 330 32050ft 525kts
29-May-17 00:33 57.779894 0.750912 330 32052ft 525kts
29-May-17 00:34 57.910290 0.632180 330 32054ft 525kts
29-May-17 00:35 58.041068 0.512110 330 32056ft 525kts
29-May-17 00:36 58.171880 0.391022 330 32044ft 525kts
29-May-17 00:37 58.287813 0.282885 329 32045ft 525kts
29-May-17 00:38 58.418456 0.160026 329 32047ft 525kts
29-May-17 00:39 58.548889 0.036363 329 32049ft 525kts
29-May-17 00:40 58.678909 -0.087945 329 32051ft 525kts
29-May-17 00:41 58.808682 -0.213060 329 32053ft 525kts
29-May-17 00:42 58.938758 -0.339526 329 32082ft 525kts
29-May-17 00:43 59.069153 -0.467388 329 32084ft 525kts
29-May-17 00:44 59.194826 -0.591678 329 32071ft 526kts
29-May-17 00:45 59.323903 -0.720349 328 32073ft 525kts
29-May-17 00:46 59.453579 -0.850806 328 32075ft 526kts
29-May-17 00:47 59.583364 -0.982486 328 32077ft 526kts
29-May-17 00:48 59.712514 -1.114672 328 32079ft 526kts
29-May-17 00:49 59.842025 -1.248402 327 32080ft 526kts
29-May-17 00:50 59.956023 -1.421636 313 32103ft 512kts
29-May-17 00:51 60.059717 -1.603007 312 32085ft 499kts
29-May-17 00:52 60.161653 -1.783404 311 32073ft 499kts
29-May-17 00:53 60.264935 -1.967777 311 32072ft 499kts
29-May-17 00:54 60.368387 -2.154106 311 32074ft 499kts
29-May-17 00:55 60.471386 -2.341238 311 32074ft 499kts
29-May-17 00:56 60.574141 -2.529613 311 32075ft 499kts
29-May-17 00:57 60.676767 -2.719416 311 32078ft 499kts
29-May-17 00:58 60.778870 -2.910015 310 32080ft 499kts
29-May-17 00:59 60.879158 -3.098618 310 32069ft 479kts
29-May-17 01:00 60.977828 -3.286377 310 32080ft 484kts
29-May-17 01:01 61.076017 -3.474590 310 32080ft 484kts
29-May-17 01:02 61.172973 -3.662094 309 32070ft 484kts
29-May-17 01:03 61.270407 -3.852205 309 32073ft 483kts
29-May-17 01:04 61.368783 -4.045980 309 32033ft 482kts
29-May-17 01:05 61.465445 -4.237957 309 32128ft 484kts
29-May-17 01:06 61.562343 -4.432180 309 32128ft 484kts
29-May-17 01:07 61.659261 -4.628253 309 32129ft 484kts
29-May-17 01:08 61.749985 -4.813430 308 32134ft 483kts
29-May-17 01:09 61.844599 -5.008276 308 32134ft 484kts
29-May-17 01:10 61.940807 -5.208225 308 32134ft 484kts
29-May-17 01:11 62.037165 -5.410279 308 32128ft 480kts
29-May-17 01:12 62.132283 -5.611802 308 32119ft 484kts
29-May-17 01:13 62.226921 -5.814077 307 32127ft 484kts
29-May-17 01:14 62.321810 -6.018826 307 32127ft 484kts
29-May-17 01:15 62.416228 -6.224497 307 32127ft 484kts
29-May-17 01:16 62.510381 -6.431564 307 32128ft 485kts
29-May-17 01:17 62.605083 -6.641736 307 32120ft 480kts
29-May-17 01:18 62.698299 -6.850855 306 32133ft 484kts
29-May-17 01:19 62.791573 -7.061993 306 32133ft 484kts
29-May-17 01:20 62.884407 -7.274211 306 32133ft 484kts
29-May-17 01:21 62.977156 -7.488325 306 32134ft 485kts
29-May-17 01:22 63.069359 -7.703263 305 32139ft 484kts
29-May-17 01:23 63.162019 -7.921342 305 32115ft 480kts
29-May-17 01:24 63.253469 -8.138947 305 32125ft 484kts
29-May-17 01:25 63.344567 -8.357752 305 32125ft 485kts
29-May-17 01:26 63.435854 -8.579245 305 32126ft 485kts
29-May-17 01:27 63.525067 -8.797889 304 32131ft 484kts
29-May-17 01:28 63.615937 -9.022998 304 32100ft 483kts
29-May-17 01:29 63.705681 -9.247359 304 32133ft 485kts
29-May-17 01:30 63.795260 -9.473715 304 32132ft 485kts
29-May-17 01:31 63.884526 -9.701612 303 32136ft 484kts
29-May-17 01:32 63.973443 -9.931018 303 32136ft 485kts
29-May-17 01:33 64.071853 -10.143931 312 32030ft 493kts
29-May-17 01:34 64.174895 -10.349697 311 32016ft 493kts
29-May-17 01:35 64.277239 -10.557099 311 32016ft 493kts
29-May-17 01:36 64.379528 -10.766584 310 32020ft 493kts
29-May-17 01:37 64.481526 -10.977670 310 32021ft 493kts
29-May-17 01:38 64.584529 -11.192963 310 31992ft 489kts
29-May-17 01:39 64.685525 -11.406532 310 32023ft 493kts
29-May-17 01:40 64.786688 -11.622581 310 32023ft 493kts
29-May-17 01:41 64.879851 -11.823590 309 32028ft 492kts
29-May-17 01:42 64.980244 -12.042455 309 32028ft 492kts
29-May-17 01:43 65.080039 -12.262348 309 32029ft 492kts
29-May-17 01:44 65.179533 -12.483943 309 32015ft 492kts
29-May-17 01:45 65.276285 -12.701716 308 32020ft 491kts
29-May-17 01:46 65.376457 -12.929565 308 31994ft 486kts
29-May-17 01:47 65.474414 -13.155091 308 32021ft 491kts
29-May-17 01:48 65.572486 -13.383196 308 32021ft 491kts
29-May-17 01:49 65.670134 -13.612854 308 32022ft 491kts
29-May-17 01:50 65.747915 -13.797606 307 32026ft 490kts
29-May-17 01:51 65.844922 -14.030382 307 32026ft 490kts
29-May-17 01:52 65.941325 -14.264299 308 32027ft 490kts
29-May-17 01:53 66.037448 -14.500180 308 32027ft 490kts
29-May-17 01:54 66.133063 -14.737545 307 31975ft 492kts
29-May-17 01:55 66.228211 -14.976318 307 32019ft 489kts
29-May-17 01:56 66.322960 -15.216860 307 32017ft 488kts
29-May-17 01:57 66.417257 -15.459063 307 32019ft 488kts
29-May-17 01:58 66.509885 -15.699690 306 31997ft 487kts
29-May-17 01:59 66.603231 -15.945021 306 31996ft 487kts
29-May-17 02:00 66.695960 -16.191570 306 31997ft 487kts
29-May-17 02:01 66.788620 -16.440840 306 31997ft 486kts
29-May-17 02:02 66.878188 -16.684603 305 32001ft 485kts
29-May-17 02:03 66.969460 -16.935927 305 32001ft 485kts
29-May-17 02:04 67.060381 -17.189277 305 32001ft 484kts
29-May-17 02:05 67.150880 -17.444459 305 31989ft 483kts
29-May-17 02:06 67.240490 -17.700187 304 31992ft 482kts
29-May-17 02:07 67.329762 -17.958142 304 31985ft 485kts
29-May-17 02:08 67.419361 -18.220051 304 31992ft 486kts
29-May-17 02:09 67.508497 -18.483881 304 31993ft 485kts
29-May-17 02:10 67.595199 -18.743648 303 31996ft 483kts
29-May-17 02:11 67.682990 -19.009975 303 31997ft 483kts
29-May-17 02:12 67.770171 -19.277737 303 31997ft 482kts
29-May-17 02:13 67.856837 -19.547266 303 31997ft 482kts
29-May-17 02:14 67.942785 -19.817914 302 32000ft 480kts
29-May-17 02:15 68.031054 -20.083509 309 31977ft 486kts
29-May-17 02:16 68.126245 -20.337528 308 31959ft 485kts
29-May-17 02:17 68.220777 -20.593839 308 31962ft 484kts
29-May-17 02:18 68.314040 -20.849905 307 31965ft 482kts
29-May-17 02:19 68.407131 -21.108735 307 31966ft 482kts
29-May-17 02:20 68.499719 -21.369387 307 31966ft 481kts
29-May-17 02:21 68.591749 -21.631742 307 31966ft 480kts
29-May-17 02:22 68.683027 -21.895269 306 31969ft 478kts
29-May-17 02:23 68.774042 -22.161408 306 31970ft 478kts
29-May-17 02:24 68.863836 -22.427336 306 31970ft 477kts
29-May-17 02:25 68.953437 -22.696096 305 31973ft 475kts
29-May-17 02:26 69.042347 -22.966236 305 31973ft 474kts
29-May-17 02:27 69.130501 -23.237560 305 31960ft 473kts
29-May-17 02:28 69.218389 -23.511594 305 31963ft 473kts
29-May-17 02:29 69.305364 -23.786341 305 31965ft 471kts
29-May-17 02:30 69.392125 -24.064019 305 31966ft 471kts
29-May-17 02:31 69.478007 -24.342525 305 31966ft 470kts
29-May-17 02:32 69.563522 -24.623539 305 31965ft 469kts
29-May-17 02:33 69.648017 -24.904908 304 31970ft 468kts
29-May-17 02:34 69.732369 -25.189572 304 31969ft 467kts
29-May-17 02:35 69.815986 -25.475570 304 31968ft 467kts
29-May-17 02:36 69.898557 -25.761842 303 31971ft 465kts
29-May-17 02:37 69.967084 -26.002357 303 31970ft 465kts
29-May-17 02:38 70.062534 -26.341973 303 31970ft 464kts
29-May-17 02:39 70.143246 -26.633408 303 31963ft 464kts
29-May-17 02:40 70.223255 -26.926324 302 31966ft 463kts
29-May-17 02:41 70.303269 -27.223311 302 31965ft 462kts
29-May-17 02:42 70.382622 -27.521995 302 31964ft 461kts
29-May-17 02:43 70.460926 -27.820866 302 31967ft 460kts
29-May-17 02:44 70.525614 -28.070937 302 31985ft 459kts
29-May-17 02:45 70.603092 -28.374385 302 32074ft 458kts
29-May-17 02:46 70.691770 -28.727055 301 32078ft 457kts
29-May-17 02:47 70.755116 -28.982554 301 32077ft 457kts
29-May-17 02:48 70.830732 -29.291612 301 32076ft 456kts
29-May-17 02:49 70.905386 -29.602969 306 32064ft 453kts
29-May-17 02:50 70.992271 -29.967203 305 32073ft 454kts
29-May-17 02:51 71.055771 -30.223442 306 32074ft 455kts
29-May-17 02:52 71.130948 -30.528754 306 32075ft 455kts
29-May-17 02:53 71.206765 -30.841024 305 32076ft 455kts
29-May-17 02:54 71.282088 -31.155798 305 32076ft 455kts
29-May-17 02:55 71.356949 -31.473319 305 32075ft 455kts
29-May-17 02:56 71.431143 -31.792779 305 32076ft 455kts
29-May-17 02:57 71.504686 -32.114140 305 32075ft 455kts
29-May-17 02:58 71.578008 -32.439414 305 32074ft 454kts
29-May-17 02:59 71.650420 -32.765734 304 32076ft 455kts
29-May-17 03:00 71.722599 -33.095903 304 32075ft 455kts
29-May-17 03:01 71.793870 -33.427057 304 32074ft 455kts
29-May-17 03:02 71.864478 -33.760344 303 32049ft 454kts
29-May-17 03:03 71.934307 -34.095050 303 32047ft 454kts
29-May-17 03:04 72.004127 -34.435093 303 32050ft 454kts
29-May-17 03:05 72.073075 -34.776427 302 32048ft 454kts
29-May-17 03:06 72.141527 -35.120689 302 32049ft 454kts
29-May-17 03:07 72.209338 -35.467388 302 32048ft 454kts
29-May-17 03:08 72.276609 -35.817079 301 32049ft 454kts
29-May-17 03:09 72.343332 -36.169597 301 32049ft 454kts
29-May-17 03:10 72.409022 -36.522657 301 32048ft 454kts
29-May-17 03:11 72.474454 -36.880311 300 32049ft 454kts
29-May-17 03:12 72.539076 -37.239570 300 32048ft 454kts
29-May-17 03:13 72.603080 -37.601609 300 32047ft 454kts
29-May-17 03:14 72.666437 -37.966297 299 32048ft 454kts
29-May-17 03:15 72.729120 -38.333481 299 32047ft 454kts
29-May-17 03:16 72.790301 -38.698288 298 32048ft 454kts
29-May-17 03:17 72.851698 -39.070857 298 32042ft 452kts
29-May-17 03:18 72.912254 -39.445229 298 32047ft 454kts
29-May-17 03:19 72.972089 -39.821957 297 32048ft 454kts
29-May-17 03:20 73.021729 -40.217747 290 32045ft 454kts
29-May-17 03:21 73.063440 -40.625337 289 32046ft 454kts
29-May-17 03:22 73.103685 -41.033807 288 32048ft 454kts
29-May-17 03:23 73.143222 -41.445666 288 32048ft 454kts
29-May-17 03:24 73.181850 -41.858777 287 32043ft 457kts
29-May-17 03:25 73.219680 -42.273523 287 32050ft 454kts
29-May-17 03:26 73.256736 -42.691088 286 32049ft 454kts
29-May-17 03:27 73.292924 -43.110093 286 32049ft 454kts
29-May-17 03:28 73.328281 -43.531016 286 32048ft 454kts
29-May-17 03:29 73.362735 -43.953108 286 32049ft 454kts
29-May-17 03:30 73.396328 -44.376735 286 32048ft 454kts
29-May-17 03:31 73.429068 -44.802268 285 32049ft 454kts
29-May-17 03:32 73.460998 -45.229969 285 32048ft 454kts
29-May-17 03:33 73.491948 -45.657883 284 32047ft 454kts
29-May-17 03:34 73.522085 -46.088247 284 32048ft 454kts
29-May-17 03:35 73.551381 -46.520704 284 32047ft 454kts
29-May-17 03:36 73.579783 -46.954636 283 32048ft 454kts
29-May-17 03:37 73.607256 -47.389285 283 32047ft 454kts
29-May-17 03:38 73.633788 -47.824890 282 32049ft 454kts
29-May-17 03:39 73.659442 -48.261830 282 32048ft 454kts
29-May-17 03:40 73.683944 -48.695754 281 32047ft 454kts
29-May-17 03:41 73.707821 -49.135847 281 32048ft 454kts
29-May-17 03:42 73.730811 -49.577685 281 32047ft 454kts
29-May-17 03:43 73.752667 -50.016355 280 32048ft 454kts
29-May-17 03:44 73.773825 -50.460379 280 32047ft 454kts
29-May-17 03:45 73.793980 -50.904149 279 32048ft 454kts
29-May-17 03:46 73.813270 -51.350015 279 32047ft 454kts
29-May-17 03:47 73.831551 -51.795312 278 32048ft 454kts
29-May-17 03:48 73.848962 -52.242516 278 32047ft 454kts
29-May-17 03:49 73.865406 -52.690112 277 32047ft 454kts
29-May-17 03:50 73.880913 -53.138451 277 31995ft 453kts
29-May-17 03:51 73.895510 -53.588436 277 31992ft 454kts
29-May-17 03:52 73.909155 -54.038991 276 31993ft 454kts
29-May-17 03:53 73.921844 -54.489663 276 31993ft 453kts
29-May-17 03:54 73.933555 -54.939997 275 31993ft 454kts
29-May-17 03:55 73.944392 -55.393555 275 31993ft 453kts
29-May-17 03:56 73.954234 -55.846489 274 31994ft 454kts
29-May-17 03:57 73.963152 -56.300501 274 31993ft 453kts
29-May-17 03:58 73.971084 -56.754062 274 31994ft 454kts
29-May-17 03:59 73.978082 -57.208418 274 31993ft 453kts
29-May-17 04:00 73.984129 -57.663858 273 31992ft 453kts
29-May-17 04:01 73.989200 -58.118903 273 31993ft 453kts
29-May-17 04:02 73.993317 -58.574044 273 31992ft 453kts
29-May-17 04:03 73.996438 -59.023857 272 31993ft 453kts
29-May-17 04:04 73.998647 -59.478931 272 31992ft 453kts
29-May-17 04:05 73.999797 -59.935136 270 31993ft 453kts
29-May-17 04:06 73.998999 -60.391413 270 31993ft 453kts
29-May-17 04:07 73.996996 -60.847524 269 31994ft 453kts
29-May-17 04:08 73.994025 -61.303080 269 31992ft 453kts
29-May-17 04:09 73.990085 -61.758799 268 31995ft 455kts
29-May-17 04:10 73.985169 -62.214706 268 31993ft 455kts
29-May-17 04:11 73.979290 -62.670891 267 31993ft 454kts
29-May-17 04:12 73.972443 -63.126890 267 31993ft 455kts
29-May-17 04:13 73.964633 -63.582743 267 31993ft 454kts
29-May-17 04:14 73.955868 -64.037524 266 31994ft 454kts
29-May-17 04:15 73.946153 -64.491643 266 31992ft 454kts
29-May-17 04:16 73.935481 -64.945260 265 31993ft 454kts
29-May-17 04:17 73.923857 -65.398138 265 31993ft 454kts
29-May-17 04:18 73.911293 -65.849769 264 31994ft 454kts
29-May-17 04:19 73.897770 -66.301500 264 31991ft 454kts
29-May-17 04:20 73.883273 -66.752864 264 31997ft 454kts
29-May-17 04:21 73.867847 -67.203415 264 31993ft 454kts
29-May-17 04:22 73.851493 -67.652467 263 31992ft 454kts
29-May-17 04:23 73.834162 -68.101370 263 31994ft 454kts
29-May-17 04:24 73.815975 -68.547489 263 31993ft 454kts
29-May-17 04:25 73.797045 -68.988361 262 31994ft 454kts
29-May-17 04:26 73.777053 -69.431703 262 31994ft 454kts
29-May-17 04:27 73.756018 -69.876314 261 32075ft 454kts
29-May-17 04:28 73.734215 -70.319060 261 32075ft 454kts
29-May-17 04:29 73.711538 -70.760796 260 32076ft 454kts
29-May-17 04:30 73.687948 -71.201431 260 32075ft 454kts
29-May-17 04:31 73.663428 -71.641114 260 32074ft 454kts
29-May-17 04:32 73.637949 -72.080109 259 32075ft 454kts
29-May-17 04:33 73.611701 -72.515652 259 32074ft 454kts
29-May-17 04:34 73.584798 -72.945999 258 32075ft 454kts
29-May-17 04:35 73.556695 -73.380001 258 32075ft 454kts
29-May-17 04:36 73.527487 -73.815266 257 32073ft 460kts
29-May-17 04:37 73.497240 -74.251799 257 32075ft 460kts
29-May-17 04:38 73.466105 -74.686211 256 32075ft 460kts
29-May-17 04:39 73.434013 -75.119814 256 32075ft 460kts
29-May-17 04:40 73.401032 -75.551698 256 32075ft 460kts
29-May-17 04:41 73.367420 -75.978791 256 32088ft 464kts
29-May-17 04:42 73.332590 -76.408254 256 32076ft 461kts
29-May-17 04:43 73.297072 -76.833662 255 32079ft 461kts
29-May-17 04:44 73.260448 -77.260218 255 32075ft 461kts
29-May-17 04:45 73.223137 -77.682795 254 32075ft 461kts
29-May-17 04:46 73.184859 -78.104705 254 32076ft 461kts
29-May-17 04:47 73.145721 -78.524806 254 32076ft 461kts
29-May-17 04:48 73.106313 -78.936732 253 32094ft 457kts
29-May-17 04:49 73.065570 -79.352425 253 32072ft 461kts
29-May-17 04:50 73.023437 -79.772185 251 32085ft 478kts
29-May-17 04:51 72.985425 -80.203147 257 32085ft 475kts
29-May-17 04:52 72.953734 -80.639092 257 32077ft 475kts
29-May-17 04:53 72.920986 -81.073896 256 32077ft 475kts
29-May-17 04:54 72.888317 -81.494278 256 32061ft 475kts
29-May-17 04:55 72.853877 -81.924215 255 31995ft 475kts
29-May-17 04:56 72.818371 -82.354384 255 31993ft 475kts
29-May-17 04:57 72.782121 -82.780905 254 31994ft 475kts
29-May-17 04:58 72.744795 -83.207738 254 31994ft 475kts
29-May-17 04:59 72.706643 -83.631967 254 31993ft 475kts
29-May-17 05:00 72.667731 -84.053008 253 31996ft 475kts
29-May-17 05:01 72.627671 -84.475029 253 31994ft 475kts
29-May-17 05:02 72.586903 -84.893386 252 31994ft 476kts
29-May-17 05:03 72.545427 -85.308243 252 32024ft 475kts
29-May-17 05:04 72.502891 -85.723135 251 32291ft 474kts
29-May-17 05:05 72.459673 -86.134432 251 32292ft 473kts
29-May-17 05:06 72.415508 -86.544684 251 32292ft 473kts
29-May-17 05:07 72.370619 -86.951861 250 32292ft 474kts
29-May-17 05:08 72.324882 -87.357172 250 32292ft 474kts
29-May-17 05:09 72.278362 -87.760082 249 32292ft 474kts
29-May-17 05:10 72.230902 -88.161947 250 32292ft 474kts
29-May-17 05:11 72.182673 -88.561356 250 32292ft 474kts
29-May-17 05:12 72.134479 -88.951909 249 32292ft 474kts
29-May-17 05:13 72.084478 -89.348531 249 32292ft 474kts
29-May-17 05:14 72.033769 -89.742304 248 32293ft 474kts
29-May-17 05:15 71.973536 -90.118914 238 32295ft 476kts
29-May-17 05:16 71.900126 -90.472424 237 32293ft 476kts
29-May-17 05:17 71.825404 -90.819859 236 32291ft 476kts
29-May-17 05:18 71.749589 -91.166304 236 32291ft 476kts
29-May-17 05:19 71.673372 -91.508986 236 32291ft 476kts
29-May-17 05:20 71.597081 -91.846583 235 32287ft 477kts
29-May-17 05:21 71.519144 -92.186029 235 32158ft 478kts
29-May-17 05:22 71.440764 -92.522044 235 32156ft 479kts
29-May-17 05:23 71.361835 -92.855159 234 32157ft 479kts
29-May-17 05:24 71.282161 -93.186218 234 32157ft 479kts
29-May-17 05:25 71.201524 -93.516134 234 32157ft 479kts
29-May-17 05:26 71.121118 -93.840106 233 32157ft 479kts
29-May-17 05:27 71.039647 -94.163419 233 32158ft 479kts
29-May-17 05:28 70.957319 -94.485230 233 32158ft 479kts
29-May-17 05:29 70.877065 -94.794333 232 32153ft 479kts
29-May-17 05:30 70.793790 -95.110370 232 32156ft 479kts
29-May-17 05:31 70.710272 -95.422688 232 32156ft 479kts
29-May-17 05:32 70.626052 -95.733067 231 32156ft 479kts
29-May-17 05:33 70.541185 -96.041284 231 32156ft 479kts
29-May-17 05:34 70.455970 -96.346330 231 32156ft 479kts
29-May-17 05:35 70.370227 -96.648894 231 32156ft 479kts
29-May-17 05:36 70.283809 -96.949522 230 32157ft 480kts
29-May-17 05:37 70.196814 -97.247896 230 32157ft 480kts
29-May-17 05:38 70.109424 -97.543437 230 32157ft 480kts
29-May-17 05:39 70.021746 -97.835840 229 32158ft 480kts
29-May-17 05:40 69.933696 -98.125444 229 32185ft 480kts
29-May-17 05:41 69.845470 -98.411676 229 32183ft 480kts
29-May-17 05:42 69.757590 -98.692952 228 32183ft 480kts
29-May-17 05:43 69.668235 -98.975133 228 32181ft 480kts
29-May-17 05:44 69.578216 -99.255605 228 32183ft 480kts
29-May-17 05:45 69.487599 -99.534177 228 32183ft 480kts
29-May-17 05:46 69.396568 -99.810321 227 32184ft 480kts
29-May-17 05:47 69.305569 -100.085858 228 32184ft 480kts
29-May-17 05:48 69.215284 -100.361528 228 32184ft 480kts
29-May-17 05:49 69.124508 -100.635312 228 32184ft 480kts
29-May-17 05:50 69.048911 -100.860615 227 32184ft 480kts
29-May-17 05:51 68.942042 -101.175012 227 32185ft 480kts
29-May-17 05:52 68.850132 -101.441648 227 32182ft 480kts
29-May-17 05:53 68.757761 -101.706215 226 32183ft 480kts
29-May-17 05:54 68.680423 -101.925149 226 32183ft 480kts
29-May-17 05:55 68.587140 -102.186171 226 32183ft 480kts
29-May-17 05:56 68.493599 -102.444639 226 32183ft 480kts
29-May-17 05:57 68.384054 -102.743260 225 32184ft 480kts
29-May-17 05:58 68.305405 -102.955003 225 32184ft 480kts
29-May-17 05:59 68.210815 -103.206802 225 32210ft 480kts
29-May-17 06:00 68.099655 -103.498804 225 32211ft 480kts
29-May-17 06:01 68.020499 -103.704218 224 32212ft 480kts
29-May-17 06:02 67.924795 -103.949824 224 32212ft 480kts
29-May-17 06:03 67.828733 -104.193406 224 32209ft 480kts
29-May-17 06:04 67.732029 -104.435692 224 32210ft 480kts
29-May-17 06:05 67.635511 -104.674652 223 32210ft 480kts
29-May-17 06:06 67.537898 -104.913477 223 32210ft 480kts
29-May-17 06:07 67.440309 -105.149441 223 32212ft 480kts
29-May-17 06:08 67.341945 -105.384505 223 32210ft 480kts
29-May-17 06:09 67.243787 -105.616359 223 32211ft 480kts
29-May-17 06:10 67.148954 -105.837764 223 32210ft 478kts
29-May-17 06:11 67.050482 -106.065223 223 32211ft 479kts
29-May-17 06:12 66.951793 -106.290549 223 32163ft 479kts
29-May-17 06:13 66.852721 -106.514192 223 32155ft 479kts
29-May-17 06:14 66.753685 -106.735267 222 32073ft 480kts
29-May-17 06:15 66.653604 -106.956175 222 31994ft 480kts
29-May-17 06:16 66.553049 -107.175662 222 31994ft 480kts
29-May-17 06:17 66.452011 -107.393765 222 31994ft 480kts
29-May-17 06:18 66.350928 -107.609561 222 31994ft 480kts
29-May-17 06:19 66.249796 -107.823105 221 31995ft 480kts
29-May-17 06:20 66.147917 -108.035883 221 31995ft 480kts
29-May-17 06:21 66.045965 -108.246513 221 31995ft 480kts
29-May-17 06:22 65.943687 -108.455547 221 31995ft 480kts
29-May-17 06:23 65.843435 -108.658270 220 31993ft 480kts
29-May-17 06:24 65.753882 -108.837571 220 31994ft 480kts
29-May-17 06:25 65.650554 -109.042400 220 31996ft 480kts
29-May-17 06:26 65.547319 -109.244890 220 31994ft 480kts
29-May-17 06:27 65.443416 -109.446552 220 31995ft 480kts
29-May-17 06:28 65.339285 -109.646544 220 31994ft 480kts
29-May-17 06:29 65.235799 -109.843241 219 31995ft 480kts
29-May-17 06:30 65.131607 -110.038885 219 32126ft 481kts
29-May-17 06:31 65.026563 -110.233462 219 32238ft 480kts
29-May-17 06:32 64.921340 -110.426268 219 32239ft 480kts
29-May-17 06:33 64.816740 -110.615978 219 32236ft 480kts
29-May-17 06:34 64.711245 -110.805398 218 32237ft 480kts
29-May-17 06:35 64.605410 -110.993518 218 32237ft 480kts
29-May-17 06:36 64.499009 -111.180753 218 32237ft 480kts
29-May-17 06:37 64.392352 -111.366570 218 32236ft 480kts
29-May-17 06:38 64.285730 -111.550490 218 32237ft 480kts
29-May-17 06:39 64.179446 -111.732029 217 32238ft 481kts
29-May-17 06:40 64.071896 -111.913924 217 32238ft 481kts
29-May-17 06:41 63.964990 -112.092982 217 32196ft 481kts
29-May-17 06:42 63.857988 -112.270472 217 31995ft 482kts
29-May-17 06:43 63.749551 -112.448597 217 31994ft 482kts
29-May-17 06:44 63.641329 -112.624664 217 31994ft 482kts
29-May-17 06:45 63.533732 -112.798050 216 31994ft 482kts
29-May-17 06:46 63.424741 -112.972014 216 31995ft 482kts
29-May-17 06:47 63.315734 -113.144355 216 31995ft 482kts
29-May-17 06:48 63.206505 -113.315417 216 31995ft 482kts
29-May-17 06:49 63.096859 -113.485525 216 31995ft 482kts
29-May-17 06:50 62.987638 -113.653389 215 31997ft 482kts
29-May-17 06:51 62.879108 -113.818651 215 31996ft 482kts
29-May-17 06:52 62.769293 -113.984343 215 32019ft 481kts
29-May-17 06:53 62.659342 -114.148710 215 32209ft 482kts
29-May-17 06:54 62.548926 -114.312277 215 32210ft 481kts
29-May-17 06:55 62.437703 -114.470398 212 32212ft 482kts
29-May-17 06:56 62.323016 -114.618147 212 32210ft 482kts
29-May-17 06:57 62.231641 -114.734520 211 32212ft 482kts
29-May-17 06:58 62.116312 -114.880193 211 32211ft 482kts
29-May-17 06:59 62.001311 -115.024161 211 32214ft 482kts
29-May-17 07:00 61.886612 -115.166489 211 32211ft 482kts
29-May-17 07:01 61.771048 -115.308633 211 32209ft 482kts
29-May-17 07:02 61.655215 -115.449862 211 32211ft 482kts
29-May-17 07:03 61.539671 -115.589521 211 32092ft 483kts
29-May-17 07:04 61.422120 -115.730046 212 31991ft 491kts
29-May-17 07:05 61.303426 -115.871303 212 31998ft 492kts
29-May-17 07:06 61.184586 -116.011220 212 31996ft 492kts
29-May-17 07:07 61.065550 -116.150134 212 31994ft 493kts
29-May-17 07:08 60.945732 -116.288908 212 31975ft 490kts
29-May-17 07:09 60.853221 -116.394960 212 31992ft 493kts
29-May-17 07:10 60.733815 -116.530966 212 31991ft 493kts
29-May-17 07:11 60.618556 -116.660844 213 31963ft 450kts
29-May-17 07:12 60.509502 -116.783354 213 32187ft 453kts
29-May-17 07:13 60.400111 -116.905018 213 32017ft 453kts
29-May-17 07:14 60.289797 -117.026813 213 32190ft 454kts
29-May-17 07:15 60.179778 -117.147194 213 32209ft 453kts
29-May-17 07:16 60.069533 -117.266960 213 32209ft 453kts
29-May-17 07:17 59.958948 -117.386188 213 32208ft 453kts
29-May-17 07:18 59.849152 -117.503665 213 32205ft 453kts
29-May-17 07:19 59.739148 -117.620475 213 32205ft 452kts
29-May-17 07:20 59.628380 -117.737216 212 32212ft 453kts
29-May-17 07:21 59.516077 -117.854624 212 32197ft 449kts
29-May-17 07:22 59.405391 -117.969601 212 32212ft 453kts
29-May-17 07:23 59.294225 -118.084149 212 32210ft 452kts
29-May-17 07:24 59.182916 -118.197990 212 32209ft 452kts
29-May-17 07:25 59.076448 -118.306099 212 32207ft 452kts
29-May-17 07:26 58.965455 -118.417996 212 32207ft 452kts
29-May-17 07:27 58.853490 -118.530191 212 32217ft 460kts
29-May-17 07:28 58.742112 -118.640702 212 32209ft 452kts
29-May-17 07:29 58.632923 -118.748392 211 32211ft 453kts
29-May-17 07:30 58.520727 -118.858272 211 32212ft 453kts
29-May-17 07:31 58.408787 -118.967109 211 32213ft 453kts
29-May-17 07:32 58.296616 -119.075391 211 32209ft 453kts
29-May-17 07:33 58.183688 -119.183746 211 32224ft 460kts
29-May-17 07:34 58.071895 -119.290033 211 32212ft 452kts
29-May-17 07:35 57.959480 -119.396237 211 32207ft 452kts
29-May-17 07:36 57.848826 -119.500062 211 32207ft 452kts
29-May-17 07:37 57.737019 -119.604252 211 32091ft 452kts
29-May-17 07:38 57.625711 -119.707248 211 31995ft 453kts
29-May-17 07:39 57.513148 -119.810704 211 31996ft 453kts
29-May-17 07:40 57.400519 -119.913514 210 31996ft 453kts
29-May-17 07:41 57.287591 -120.015861 211 31994ft 453kts
29-May-17 07:42 57.174917 -120.117292 211 31992ft 453kts
29-May-17 07:43 57.062007 -120.218246 211 31993ft 453kts
29-May-17 07:44 56.948686 -120.318880 211 31991ft 453kts
29-May-17 07:45 56.837608 -120.416754 210 31992ft 465kts
29-May-17 07:46 56.724535 -120.515929 211 32116ft 451kts
29-May-17 07:47 56.611428 -120.614377 210 32125ft 452kts
29-May-17 07:48 56.499954 -120.710768 210 32130ft 452kts
29-May-17 07:49 56.386476 -120.808230 210 32132ft 452kts
29-May-17 07:50 56.270884 -120.895809 198 32135ft 460kts
29-May-17 07:51 56.145737 -120.943247 196 32128ft 462kts
29-May-17 07:52 56.019846 -120.986943 196 32129ft 462kts
29-May-17 07:53 55.894182 -121.029909 196 32108ft 458kts
29-May-17 07:54 55.770046 -121.072196 196 32129ft 462kts
29-May-17 07:55 55.644030 -121.114766 196 32131ft 462kts
29-May-17 07:56 55.518181 -121.157006 196 32128ft 462kts
29-May-17 07:57 55.392454 -121.198932 196 32128ft 462kts
29-May-17 07:58 55.266577 -121.240636 196 32127ft 462kts
29-May-17 07:59 55.140503 -121.282137 196 32127ft 462kts
29-May-17 08:00 55.014611 -121.323313 196 32126ft 462kts
29-May-17 08:01 54.890696 -121.363519 196 32104ft 457kts
29-May-17 08:02 54.765769 -121.403933 196 32127ft 462kts
29-May-17 08:03 54.639825 -121.444348 196 32125ft 462kts
29-May-17 08:04 54.514613 -121.484284 196 32126ft 463kts
29-May-17 08:05 54.389131 -121.524049 196 32125ft 463kts
29-May-17 08:06 54.262720 -121.563863 196 32125ft 463kts
29-May-17 08:07 54.136491 -121.603373 196 32124ft 463kts
29-May-17 08:08 54.010195 -121.642659 196 32124ft 463kts
29-May-17 08:09 53.889182 -121.680066 195 32131ft 463kts
29-May-17 08:10 53.762645 -121.718901 195 32132ft 463kts
29-May-17 08:11 53.636551 -121.757340 195 32131ft 463kts
29-May-17 08:12 53.509766 -121.795754 195 32131ft 463kts
29-May-17 08:13 53.383813 -121.833685 195 32131ft 463kts
29-May-17 08:14 53.257477 -121.871503 195 32130ft 463kts
29-May-17 08:15 53.131371 -121.909028 195 32129ft 463kts
29-May-17 08:16 53.004635 -121.946515 195 32129ft 463kts
29-May-17 08:17 52.882508 -121.982489 195 32129ft 466kts
29-May-17 08:18 52.755439 -122.019581 195 32130ft 465kts
29-May-17 08:19 52.628624 -122.056433 195 32127ft 465kts
29-May-17 08:20 52.502150 -122.092974 195 32154ft 466kts
29-May-17 08:21 52.374662 -122.129592 195 32155ft 466kts
29-May-17 08:22 52.247300 -122.165961 195 32155ft 466kts
29-May-17 08:23 52.122590 -122.214845 199 32152ft 463kts
29-May-17 08:24 51.998152 -122.265164 199 32154ft 463kts
29-May-17 08:25 51.879292 -122.312704 199 32154ft 462kts
29-May-17 08:26 51.754858 -122.362166 199 32154ft 462kts
29-May-17 08:27 51.630445 -122.411346 199 32154ft 462kts
29-May-17 08:28 51.506380 -122.460113 199 32179ft 462kts
29-May-17 08:29 51.381728 -122.508837 199 32180ft 462kts
29-May-17 08:30 51.257034 -122.557307 199 32179ft 462kts
29-May-17 08:31 51.132745 -122.605347 199 32178ft 462kts
29-May-17 08:32 51.009815 -122.652602 198 32179ft 462kts
29-May-17 08:33 50.889167 -122.698722 198 32185ft 463kts
29-May-17 08:34 50.769666 -122.744171 198 32174ft 462kts
29-May-17 08:35 50.645268 -122.790978 198 32160ft 462kts
29-May-17 08:36 50.520810 -122.837263 198 32156ft 462kts
29-May-17 08:37 50.396539 -122.883214 198 32158ft 462kts
29-May-17 08:38 50.272109 -122.928979 198 32157ft 462kts
29-May-17 08:39 50.147707 -122.974490 198 32157ft 462kts
29-May-17 08:40 50.028535 -123.017755 198 36247ft 465kts
29-May-17 08:41 49.908834 -123.061751 198 36157ft 454kts
29-May-17 08:42 49.791378 -123.104707 198 36157ft 453kts
29-May-17 08:43 49.669025 -123.149229 198 35999ft 453kts
29-May-17 08:44 49.547051 -123.193391 198 35994ft 453kts
29-May-17 08:45 49.427460 -123.236665 195 35999ft 441kts
29-May-17 08:46 49.308813 -123.279003 195 35991ft 441kts
29-May-17 08:47 49.189796 -123.321435 195 35992ft 441kts
29-May-17 08:48 49.070742 -123.363684 195 36097ft 441kts
29-May-17 08:49 48.952690 -123.405368 195 36050ft 441kts
29-May-17 08:50 48.842960 -123.443927 195 35996ft 441kts
29-May-17 08:51 48.725244 -123.481960 187 36082ft 445kts
29-May-17 08:52 48.601015 -123.478611 182 36102ft 447kts
29-May-17 08:53 48.477456 -123.473201 181 36100ft 447kts
29-May-17 08:54 48.352528 -123.467198 184 36122ft 468kts
29-May-17 08:55 48.223961 -123.461755 183 36098ft 464kts
29-May-17 08:56 48.096132 -123.455455 183 36124ft 464kts
29-May-17 08:57 47.967300 -123.449120 183 36125ft 464kts
29-May-17 08:58 47.843063 -123.443037 183 36126ft 465kts
29-May-17 08:59 47.714603 -123.436777 184 36126ft 465kts
29-May-17 09:00 47.586300 -123.430560 183 36125ft 465kts
29-May-17 09:01 47.457362 -123.424342 184 36099ft 465kts
29-May-17 09:02 47.328763 -123.418170 184 36095ft 465kts
29-May-17 09:03 47.204877 -123.412253 184 36099ft 465kts
29-May-17 09:04 47.076144 -123.408449 185 36098ft 464kts
29-May-17 09:05 46.947387 -123.406450 185 36098ft 464kts
29-May-17 09:06 46.828910 -123.404627 185 36099ft 464kts
29-May-17 09:07 46.725681 -123.403049 185 36126ft 464kts
29-May-17 09:08 46.575918 -123.400768 185 36126ft 464kts
29-May-17 09:09 46.447929 -123.398831 185 36126ft 464kts
29-May-17 09:10 46.340527 -123.397215 185 36127ft 465kts
29-May-17 09:11 46.211526 -123.395494 183 36131ft 463kts
29-May-17 09:12 46.083048 -123.393339 184 36125ft 467kts
29-May-17 09:13 45.953646 -123.391440 184 36126ft 466kts
29-May-17 09:14 45.844100 -123.389816 184 36127ft 466kts
29-May-17 09:15 45.703288 -123.387737 184 36101ft 465kts
29-May-17 09:16 45.596401 -123.386170 184 36100ft 465kts
29-May-17 09:17 45.467742 -123.384290 184 36099ft 464kts
29-May-17 09:18 45.339648 -123.382428 184 36099ft 464kts
29-May-17 09:19 45.210760 -123.380562 183 36099ft 463kts
29-May-17 09:20 45.082772 -123.378718 183 36098ft 463kts
29-May-17 09:21 44.955217 -123.377154 183 36093ft 459kts
29-May-17 09:22 44.830772 -123.375087 183 36100ft 462kts
29-May-17 09:23 44.702502 -123.373278 183 36100ft 462kts
29-May-17 09:24 44.575265 -123.371477 183 36105ft 461kts
29-May-17 09:25 44.447187 -123.369673 183 36126ft 461kts
29-May-17 09:26 44.319366 -123.367878 183 36126ft 460kts
29-May-17 09:27 44.171086 -123.365807 183 36126ft 460kts
29-May-17 09:28 44.064877 -123.364328 183 36126ft 460kts
29-May-17 09:29 43.937246 -123.362561 183 36125ft 459kts
29-May-17 09:30 43.816319 -123.360887 183 36128ft 459kts
29-May-17 09:31 43.689830 -123.359373 183 36109ft 455kts
29-May-17 09:32 43.563238 -123.357396 183 36114ft 458kts
29-May-17 09:33 43.436369 -123.355689 183 36127ft 458kts
29-May-17 09:34 43.309344 -123.353962 183 36126ft 458kts
29-May-17 09:35 43.182707 -123.352186 182 36124ft 457kts
29-May-17 09:36 43.055625 -123.339900 180 36126ft 459kts
29-May-17 09:37 42.929069 -123.327633 179 36125ft 458kts
29-May-17 09:38 42.807186 -123.315858 179 36128ft 458kts
29-May-17 09:39 42.680965 -123.303717 179 36101ft 457kts
29-May-17 09:40 42.554869 -123.291841 179 36102ft 454kts
29-May-17 09:41 42.428580 -123.279570 179 36100ft 457kts
29-May-17 09:42 42.302346 -123.267589 179 36100ft 457kts
29-May-17 09:43 42.176847 -123.255712 179 36092ft 456kts
29-May-17 09:44 42.050843 -123.243835 179 36045ft 456kts
29-May-17 09:45 41.924949 -123.232016 179 36044ft 455kts
29-May-17 09:46 41.804255 -123.220724 179 36049ft 455kts
29-May-17 09:47 41.678827 -123.209034 179 36075ft 455kts
29-May-17 09:48 41.553574 -123.197410 179 36074ft 455kts
29-May-17 09:49 41.428078 -123.185723 179 36073ft 455kts
29-May-17 09:50 41.302899 -123.174272 179 36047ft 454kts
29-May-17 09:51 41.177493 -123.162775 179 36046ft 454kts
29-May-17 09:52 41.054286 -123.151517 179 36045ft 453kts
29-May-17 09:53 40.928897 -123.140105 179 36044ft 453kts
29-May-17 09:54 40.809440 -123.129263 179 36049ft 453kts
29-May-17 09:55 40.684624 -123.117979 179 36048ft 453kts
29-May-17 09:56 40.568094 -123.107486 179 36048ft 452kts
29-May-17 09:57 40.443090 -123.096430 179 36051ft 449kts
29-May-17 09:58 40.318659 -123.085134 179 35966ft 452kts
29-May-17 09:59 40.193997 -123.074045 179 35965ft 452kts
29-May-17 10:00 40.069392 -123.062970 178 35964ft 451kts
29-May-17 10:01 39.944399 -123.051943 178 35963ft 451kts
29-May-17 10:02 39.861965 -123.044671 178 35970ft 451kts
29-May-17 10:03 39.804263 -123.039602 178 35968ft 451kts
29-May-17 10:04 39.679857 -123.028688 178 35821ft 452kts
29-May-17 10:05 39.555908 -123.017856 178 35059ft 451kts
29-May-17 10:06 39.431437 -123.007019 178 34303ft 451kts
29-May-17 10:07 39.306432 -122.996167 178 33525ft 452kts
29-May-17 10:08 39.181138 -122.985330 178 32733ft 454kts
29-May-17 10:09 39.055547 -122.974505 178 31939ft 456kts
29-May-17 10:10 38.929097 -122.963657 178 31137ft 458kts
29-May-17 10:11 38.828357 -122.944712 169 30447ft 464kts
29-May-17 10:12 38.711925 -122.910701 169 28122ft 462kts
29-May-17 10:13 38.588856 -122.874402 169 25971ft 449kts
29-May-17 10:14 38.469364 -122.839242 168 23947ft 435kts
29-May-17 10:15 38.354117 -122.805429 168 22007ft 420kts
29-May-17 10:16 38.243120 -122.772956 168 20175ft 404kts
29-May-17 10:17 38.135925 -122.741725 168 18359ft 391kts
29-May-17 10:18 38.032139 -122.711619 168 16567ft 379kts
29-May-17 10:19 37.932690 -122.682852 167 14864ft 366kts
29-May-17 10:20 37.850018 -122.620645 141 11515ft 352kts
29-May-17 10:21 37.779324 -122.544760 139 10123ft 323kts
29-May-17 10:22 37.711020 -122.473308 141 10981ft 297kts
29-May-17 10:23 37.651247 -122.409965 141 10990ft 278kts
29-May-17 10:24 37.588343 -122.355400 154 10997ft 277kts
29-May-17 10:25 37.524468 -122.314795 154 10004ft 274kts
29-May-17 10:26 37.469190 -122.253525 123 8696ft 275kts
29-May-17 10:27 37.430581 -122.173573 123 6171ft 256kts
29-May-17 10:28 37.426634 -122.102689 28 4174ft 239kts
29-May-17 10:29 37.484861 -122.099931 322 4045ft 226kts
29-May-17 10:30 37.526148 -122.156316 297 3656ft 224kts
29-May-17 10:31 37.555400 -122.224601 295 2405ft 213kts
29-May-17 10:32 37.580272 -122.283503 294 1362ft 166kts
29-May-17 10:33 37.599357 -122.328764 293 474ft 138kts
29-May-17 10:34 37.616542 -122.369906 296 31ft 70kts
29-May-17 10:35 37.618902 -122.376312 279 31ft 32kts
29-May-17 10:36 37.615282 -122.380517 208 30ft 20kts
29-May-17 10:37 37.611209 -122.384992 264 31ft 18kts
29-May-17 10:38 37.612195 -122.388897 298 31ft 0kts
29-May-17 10:39 37.612188 -122.388882 298 31ft 0kts
29-May-17 10:40 37.612188 -122.388882 298 31ft 0kts
29-May-17 10:41 37.612188 -122.388882 298 31ft 0kts
29-May-17 10:42 37.612188 -122.388882 298 31ft 0kts
29-May-17 10:43 37.612188 -122.388882 298 31ft 0kts
29-May-17 10:44 37.612188 -122.388882 298 31ft 0kts
29-May-17 10:45 37.612188 -122.388882 298 31ft 0kts
29-May-17 10:46 37.612188 -122.388882 298 31ft 0kts

Navigation Log

Ident Type
Flight plan parsing failed, navigation log unavailable